createdAt,value
2022-08-27T00:01:48.668Z,0.20
2022-08-27T00:04:16.930Z,0.57
2022-08-27T00:06:46.142Z,0.20
2022-08-27T00:09:13.936Z,0.20
2022-08-27T00:11:41.637Z,0.20
2022-08-27T00:14:09.532Z,0.20
2022-08-27T00:16:37.179Z,0.32
2022-08-27T00:19:05.248Z,0.20
2022-08-27T00:21:33.192Z,0.30
2022-08-27T00:24:01.421Z,0.10
2022-08-27T00:26:29.314Z,0.20
2022-08-27T00:28:56.835Z,0.62
2022-08-27T00:31:27.453Z,0.20
2022-08-27T00:33:55.923Z,0.20
2022-08-27T00:36:24.219Z,0.20
2022-08-27T00:38:54.053Z,0.20
2022-08-27T00:41:23.076Z,0.20
2022-08-27T00:43:57.740Z,0.10
2022-08-27T00:46:47.893Z,0.20
2022-08-27T00:49:18.369Z,0.20
2022-08-27T00:52:00.136Z,0.20
2022-08-27T00:54:28.422Z,0.35
2022-08-27T00:56:58.824Z,0.20
2022-08-27T00:59:30.969Z,0.20
2022-08-27T01:02:18.786Z,0.40
2022-08-27T01:04:54.153Z,0.20
2022-08-27T01:07:25.552Z,0.20
2022-08-27T01:10:00.350Z,0.15
2022-08-27T01:12:30.263Z,0.20
2022-08-27T01:14:57.963Z,0.20
2022-08-27T01:17:25.752Z,0.20
2022-08-27T01:20:00.453Z,0.15
2022-08-27T01:22:30.968Z,0.20
2022-08-27T01:25:04.254Z,0.20
2022-08-27T01:27:31.916Z,0.20
2022-08-27T01:30:00.453Z,0.20
2022-08-27T01:32:31.975Z,0.10
2022-08-27T01:35:01.096Z,0.10
2022-08-27T01:37:28.907Z,0.40
2022-08-27T01:39:59.116Z,0.30
2022-08-27T01:42:33.752Z,0.20
2022-08-27T01:45:26.391Z,0.20
2022-08-27T01:47:54.845Z,0.20
2022-08-27T01:50:41.491Z,0.20
2022-08-27T01:53:19.603Z,0.30
2022-08-27T01:55:49.905Z,0.20
2022-08-27T01:58:20.644Z,0.20
2022-08-27T02:00:56.230Z,0.20
2022-08-27T02:03:24.987Z,0.20
2022-08-27T02:05:53.662Z,0.10
2022-08-27T02:08:21.516Z,0.20
2022-08-27T02:10:50.376Z,0.35
2022-08-27T02:13:18.676Z,0.20
2022-08-27T02:15:46.833Z,0.20
2022-08-27T02:18:15.417Z,0.20
2022-08-27T02:20:45.339Z,0.13
2022-08-27T02:23:13.160Z,0.20
2022-08-27T02:25:41.597Z,0.20
2022-08-27T02:28:09.654Z,0.10
2022-08-27T02:30:38.045Z,0.30
2022-08-27T02:33:06.132Z,0.20
2022-08-27T02:35:38.799Z,0.20
2022-08-27T02:38:08.005Z,0.20
2022-08-27T02:40:37.305Z,0.20
2022-08-27T02:43:05.307Z,0.20
2022-08-27T02:45:33.736Z,0.20
2022-08-27T02:48:04.931Z,0.30
2022-08-27T02:50:33.605Z,0.20
2022-08-27T02:53:03.231Z,0.13
2022-08-27T02:55:31.095Z,0.20
2022-08-27T02:57:59.428Z,0.20
2022-08-27T03:00:29.506Z,0.20
2022-08-27T03:02:58.270Z,0.20
2022-08-27T03:05:26.677Z,0.20
2022-08-27T03:07:54.164Z,0.20
2022-08-27T03:10:22.484Z,0.10
2022-08-27T03:12:50.383Z,0.20
2022-08-27T03:15:18.891Z,0.35
2022-08-27T03:18:05.437Z,0.10
2022-08-27T03:20:33.685Z,0.20
2022-08-27T03:23:01.148Z,0.30
2022-08-27T03:25:29.076Z,0.10
2022-08-27T03:27:56.869Z,0.30
2022-08-27T03:30:24.508Z,0.10
2022-08-27T03:32:52.419Z,0.20
2022-08-27T03:35:20.932Z,0.10
2022-08-27T03:37:49.013Z,0.20
2022-08-27T03:40:17.381Z,0.20
2022-08-27T03:42:45.540Z,0.10
2022-08-27T03:45:13.075Z,0.30
2022-08-27T03:47:40.748Z,0.20
2022-08-27T03:50:09.278Z,0.50
2022-08-27T03:52:37.565Z,0.10
2022-08-27T03:55:08.227Z,0.20
2022-08-27T03:57:36.536Z,0.10
2022-08-27T04:00:08.452Z,0.20
2022-08-27T04:02:41.420Z,0.10
2022-08-27T04:05:12.428Z,0.20
2022-08-27T04:07:41.980Z,0.20
2022-08-27T04:10:11.892Z,0.10
2022-08-27T04:12:39.476Z,0.20
2022-08-27T04:15:09.319Z,0.20
2022-08-27T04:17:37.483Z,0.20
2022-08-27T04:20:31.782Z,0.20
2022-08-27T04:22:55.214Z,0.20
2022-08-27T04:25:22.671Z,0.20
2022-08-27T04:27:50.236Z,0.10
2022-08-27T04:30:19.345Z,0.22
2022-08-27T04:32:46.785Z,0.20
2022-08-27T04:35:14.308Z,0.20
2022-08-27T04:37:42.405Z,0.20
2022-08-27T04:40:10.758Z,0.40
2022-08-27T04:42:38.544Z,0.20
2022-08-27T04:45:06.694Z,0.20
2022-08-27T04:47:34.535Z,0.10
2022-08-27T04:50:05.700Z,0.13
2022-08-27T04:52:33.653Z,0.25
2022-08-27T04:55:08.961Z,0.20
2022-08-27T04:57:38.022Z,0.20
2022-08-27T05:00:07.844Z,0.20
2022-08-27T05:02:35.269Z,0.20
2022-08-27T05:05:03.120Z,0.20
2022-08-27T05:07:30.727Z,0.28
2022-08-27T05:09:58.197Z,0.40
2022-08-27T05:12:25.968Z,0.20
2022-08-27T05:14:54.737Z,0.20
2022-08-27T05:17:22.320Z,0.10
2022-08-27T05:19:50.161Z,0.20
2022-08-27T05:22:17.540Z,0.20
2022-08-27T05:24:49.550Z,0.70
2022-08-27T05:27:18.363Z,0.20
2022-08-27T05:29:45.816Z,0.20
2022-08-27T05:32:13.488Z,0.20
2022-08-27T05:34:41.470Z,0.20
2022-08-27T05:37:08.877Z,0.10
2022-08-27T05:39:36.543Z,0.13
2022-08-27T05:42:04.747Z,0.20
2022-08-27T05:44:47.567Z,0.37
2022-08-27T05:47:15.897Z,0.20
2022-08-27T05:49:43.334Z,0.30
2022-08-27T05:52:12.084Z,0.20
2022-08-27T05:54:40.068Z,0.30
2022-08-27T05:57:07.572Z,0.20
2022-08-27T05:59:54.151Z,0.30
2022-08-27T06:02:21.970Z,0.20
2022-08-27T06:04:50.128Z,0.40
2022-08-27T06:07:18.728Z,0.22
2022-08-27T06:09:46.154Z,0.20
2022-08-27T06:12:14.012Z,0.20
2022-08-27T06:14:41.431Z,0.27
2022-08-27T06:17:08.863Z,0.20
2022-08-27T06:19:36.657Z,0.20
2022-08-27T06:22:10.066Z,0.28
2022-08-27T06:24:41.404Z,0.20
2022-08-27T06:27:14.847Z,0.20
2022-08-27T06:29:44.043Z,0.20
2022-08-27T06:32:12.684Z,0.20
2022-08-27T06:34:40.824Z,0.20
2022-08-27T06:37:09.091Z,0.47
2022-08-27T06:39:39.305Z,0.30
2022-08-27T06:42:11.883Z,0.20
2022-08-27T06:44:43.668Z,0.20
2022-08-27T06:47:11.627Z,0.20
2022-08-27T06:49:40.905Z,0.25
2022-08-27T06:52:08.401Z,0.30
2022-08-27T06:54:37.441Z,0.30
2022-08-27T06:57:05.179Z,0.20
2022-08-27T06:59:33.394Z,0.20
2022-08-27T07:02:00.919Z,0.20
2022-08-27T07:04:32.812Z,0.40
2022-08-27T07:07:04.288Z,0.28
2022-08-27T07:09:33.681Z,0.20
2022-08-27T07:12:01.619Z,0.30
2022-08-27T07:14:32.951Z,0.20
2022-08-27T07:17:03.977Z,0.30
2022-08-27T07:19:32.283Z,0.20
2022-08-27T07:21:59.727Z,0.20
2022-08-27T07:24:27.536Z,0.20
2022-08-27T07:26:55.096Z,0.20
2022-08-27T07:29:22.688Z,0.43
2022-08-27T07:31:50.469Z,0.45
2022-08-27T07:34:17.884Z,0.37
2022-08-27T07:36:45.324Z,0.22
2022-08-27T07:39:15.682Z,0.28
2022-08-27T07:42:01.484Z,0.20
2022-08-27T07:44:34.334Z,0.50
2022-08-27T07:47:02.389Z,0.68
2022-08-27T07:49:31.879Z,0.30
2022-08-27T07:51:59.404Z,0.20
2022-08-27T07:54:27.185Z,0.40
2022-08-27T07:56:56.206Z,0.30
2022-08-27T07:59:24.954Z,0.30
2022-08-27T08:01:53.152Z,0.50
2022-08-27T08:04:22.615Z,0.30
2022-08-27T08:06:51.074Z,0.40
2022-08-27T08:09:19.148Z,0.40
2022-08-27T08:11:46.936Z,0.28
2022-08-27T08:14:14.346Z,0.60
2022-08-27T08:16:41.842Z,0.20
2022-08-27T08:19:09.841Z,0.30
2022-08-27T08:21:38.560Z,0.47
2022-08-27T08:24:06.400Z,0.28
2022-08-27T08:26:34.141Z,0.20
2022-08-27T08:29:04.886Z,0.20
2022-08-27T08:31:32.780Z,0.30
2022-08-27T08:34:00.778Z,0.32
2022-08-27T08:36:28.317Z,0.30
2022-08-27T08:38:55.911Z,0.20
2022-08-27T08:41:23.556Z,0.32
2022-08-27T08:43:51.858Z,0.20
2022-08-27T08:46:40.062Z,0.30
2022-08-27T08:49:35.469Z,0.20
2022-08-27T08:52:26.960Z,0.75
2022-08-27T08:55:03.211Z,0.30
2022-08-27T08:57:36.852Z,0.20
2022-08-27T09:00:13.596Z,0.35
2022-08-27T09:02:48.760Z,0.20
2022-08-27T09:05:16.963Z,0.22
2022-08-27T09:08:15.429Z,0.47
2022-08-27T09:11:11.059Z,0.40
2022-08-27T09:13:43.368Z,0.30
2022-08-27T09:16:11.455Z,0.30
2022-08-27T09:18:41.292Z,0.40
2022-08-27T09:21:27.808Z,0.28
2022-08-27T09:24:03.779Z,0.30
2022-08-27T09:26:40.730Z,0.40
2022-08-27T09:29:20.143Z,0.30
2022-08-27T09:32:05.703Z,0.20
2022-08-27T09:34:36.668Z,0.30
2022-08-27T09:37:24.236Z,0.53
2022-08-27T09:40:23.688Z,0.60
2022-08-27T09:42:53.865Z,0.30
2022-08-27T09:45:28.036Z,0.30
2022-08-27T09:48:20.312Z,0.20
2022-08-27T09:50:52.937Z,0.30
2022-08-27T09:53:44.736Z,0.30
2022-08-27T09:56:34.099Z,0.62
2022-08-27T09:59:19.789Z,0.30
2022-08-27T10:02:00.957Z,0.32
2022-08-27T10:04:51.518Z,0.33
2022-08-27T10:07:41.509Z,0.30
2022-08-27T10:10:26.528Z,0.30
2022-08-27T10:13:10.467Z,0.30
2022-08-27T10:16:03.645Z,0.30
2022-08-27T10:18:38.521Z,0.20
2022-08-27T10:21:24.072Z,0.30
2022-08-27T10:24:30.568Z,0.30
2022-08-27T10:27:16.324Z,0.22
2022-08-27T10:30:06.082Z,0.40
2022-08-27T10:32:34.085Z,0.30
2022-08-27T10:35:11.244Z,0.30
2022-08-27T10:38:03.312Z,0.30
2022-08-27T10:40:41.265Z,0.20
2022-08-27T10:43:45.112Z,0.28
2022-08-27T10:46:50.349Z,0.20
2022-08-27T10:49:35.671Z,0.30
2022-08-27T10:52:09.100Z,0.30
2022-08-27T10:54:46.939Z,0.25
2022-08-27T10:57:56.465Z,0.40
2022-08-27T11:00:40.106Z,0.40
2022-08-27T11:03:14.012Z,0.30
2022-08-27T11:05:46.585Z,0.25
2022-08-27T11:08:26.772Z,0.30
2022-08-27T11:11:18.269Z,0.30
2022-08-27T11:13:51.605Z,0.20
2022-08-27T11:16:34.581Z,0.20
2022-08-27T11:19:33.561Z,0.30
2022-08-27T11:22:17.053Z,0.40
2022-08-27T11:24:56.440Z,0.40
2022-08-27T11:27:27.379Z,0.50
2022-08-27T11:30:16.618Z,0.37
2022-08-27T11:32:47.232Z,0.55
2022-08-27T11:35:25.850Z,0.40
2022-08-27T11:38:11.483Z,0.30
2022-08-27T11:40:56.929Z,0.30
2022-08-27T11:43:28.781Z,0.40
2022-08-27T11:46:01.442Z,0.30
2022-08-27T11:48:34.681Z,0.40
2022-08-27T11:51:09.939Z,0.30
2022-08-27T11:53:51.870Z,0.37
2022-08-27T11:56:28.847Z,0.20
2022-08-27T11:59:08.270Z,6.55
2022-08-27T12:01:35.724Z,2.30
2022-08-27T12:04:21.386Z,2.00
2022-08-27T12:07:01.621Z,2.37
2022-08-27T12:09:43.149Z,13.45
2022-08-27T12:12:21.072Z,76.37
2022-08-27T12:15:04.473Z,131.95
2022-08-27T12:17:40.540Z,128.07
2022-08-27T12:20:39.769Z,92.17
2022-08-27T12:23:40.495Z,87.57
2022-08-27T12:26:27.432Z,102.50
2022-08-27T12:29:24.039Z,90.75
2022-08-27T12:32:26.136Z,156.45
2022-08-27T12:35:10.681Z,2.20
2022-08-27T12:37:50.687Z,2.15
2022-08-27T12:40:39.307Z,2.12
2022-08-27T12:43:12.821Z,2.22
2022-08-27T12:45:48.196Z,2.12
2022-08-27T12:48:21.896Z,2.20
2022-08-27T12:50:59.856Z,2.20
2022-08-27T12:53:45.238Z,2.10
2022-08-27T12:56:30.669Z,2.15
2022-08-27T12:59:04.348Z,1.80
2022-08-27T13:01:34.662Z,2.30
2022-08-27T13:04:05.436Z,2.20
2022-08-27T13:06:36.780Z,2.50
2022-08-27T13:09:07.148Z,2.28
2022-08-27T13:11:46.122Z,2.40
2022-08-27T13:14:21.439Z,2.20
2022-08-27T13:16:59.728Z,2.37
2022-08-27T13:19:29.641Z,2.53
2022-08-27T13:21:58.060Z,1.95
2022-08-27T13:24:46.470Z,2.40
2022-08-27T13:27:14.563Z,2.30
2022-08-27T13:29:43.544Z,1.92
2022-08-27T13:32:14.200Z,2.10
2022-08-27T13:34:42.287Z,2.08
2022-08-27T13:37:26.732Z,2.10
2022-08-27T13:39:56.937Z,2.83
2022-08-27T13:42:26.200Z,2.70
2022-08-27T13:45:01.382Z,2.97
2022-08-27T13:47:30.206Z,2.53
2022-08-27T13:50:17.831Z,3.12
2022-08-27T13:53:03.860Z,2.70
2022-08-27T13:55:33.606Z,2.95
2022-08-27T13:58:13.870Z,2.78
2022-08-27T14:00:42.111Z,2.78
2022-08-27T14:03:31.431Z,2.90
2022-08-27T14:06:00.284Z,2.67
2022-08-27T14:08:33.577Z,2.80
2022-08-27T14:11:05.720Z,2.67
2022-08-27T14:13:46.726Z,2.92
2022-08-27T14:16:28.328Z,2.67
2022-08-27T14:19:07.953Z,3.20
2022-08-27T14:21:38.023Z,2.83
2022-08-27T14:24:06.791Z,2.58
2022-08-27T14:26:34.620Z,1.62
2022-08-27T14:29:02.068Z,2.00
2022-08-27T14:31:30.096Z,1.70
2022-08-27T14:33:58.000Z,1.00
2022-08-27T14:36:29.648Z,0.95
2022-08-27T14:38:58.091Z,0.70
2022-08-27T14:41:27.777Z,1.17
2022-08-27T14:43:55.297Z,0.83
2022-08-27T14:46:29.819Z,0.88
2022-08-27T14:49:00.631Z,0.65
2022-08-27T14:51:31.565Z,0.80
2022-08-27T14:53:59.003Z,0.70
2022-08-27T14:56:27.043Z,0.70
2022-08-27T14:58:54.943Z,0.85
2022-08-27T15:01:24.964Z,0.77
2022-08-27T15:03:54.412Z,1.08
2022-08-27T15:06:23.628Z,1.15
2022-08-27T15:08:51.901Z,0.87
2022-08-27T15:11:23.675Z,0.80
2022-08-27T15:13:52.779Z,0.80
2022-08-27T15:16:32.529Z,0.80
2022-08-27T15:19:01.494Z,0.60
2022-08-27T15:21:30.643Z,0.80
2022-08-27T15:24:01.025Z,0.57
2022-08-27T15:26:29.828Z,0.40
2022-08-27T15:28:57.430Z,0.70
2022-08-27T15:31:25.299Z,0.30
2022-08-27T15:33:53.171Z,0.60
2022-08-27T15:36:21.291Z,0.40
2022-08-27T15:38:48.833Z,0.50
2022-08-27T15:41:16.690Z,1.30
2022-08-27T15:43:44.237Z,0.68
2022-08-27T15:46:11.820Z,0.60
2022-08-27T15:48:39.693Z,0.60
2022-08-27T15:51:13.381Z,0.30
2022-08-27T15:53:43.001Z,0.55
2022-08-27T15:56:10.427Z,0.80
2022-08-27T15:58:38.481Z,0.50
2022-08-27T16:01:10.605Z,0.60
2022-08-27T16:03:40.664Z,0.40
2022-08-27T16:06:08.920Z,0.75
2022-08-27T16:08:36.840Z,0.40
2022-08-27T16:11:09.824Z,1.23
2022-08-27T16:13:37.905Z,0.52
2022-08-27T16:16:06.473Z,0.50
2022-08-27T16:18:35.344Z,0.40
2022-08-27T16:21:04.212Z,0.60
2022-08-27T16:23:33.094Z,0.40
2022-08-27T16:26:01.724Z,0.40
2022-08-27T16:28:29.246Z,0.40
2022-08-27T16:30:57.463Z,0.50
2022-08-27T16:33:25.340Z,0.75
2022-08-27T16:35:52.939Z,0.50
2022-08-27T16:38:20.802Z,0.62
2022-08-27T16:40:51.396Z,0.40
2022-08-27T16:43:22.829Z,0.35
2022-08-27T16:45:52.832Z,0.57
2022-08-27T16:48:39.812Z,0.50
2022-08-27T16:51:16.485Z,0.40
2022-08-27T16:53:45.140Z,0.50
2022-08-27T16:56:13.124Z,0.55
2022-08-27T16:58:41.684Z,0.60
2022-08-27T17:01:11.672Z,0.40
2022-08-27T17:04:08.479Z,0.50
2022-08-27T17:06:37.885Z,0.40
2022-08-27T17:09:07.719Z,0.50
2022-08-27T17:11:36.207Z,0.50
2022-08-27T17:14:04.588Z,0.90
2022-08-27T17:16:34.879Z,0.60
2022-08-27T17:19:05.691Z,0.50
2022-08-27T17:21:34.814Z,0.80
2022-08-27T17:24:03.496Z,0.50
2022-08-27T17:26:33.175Z,0.90
2022-08-27T17:29:01.285Z,0.43
2022-08-27T17:31:33.154Z,5.37
2022-08-27T17:34:01.319Z,0.40
2022-08-27T17:36:30.608Z,0.60
2022-08-27T17:38:58.853Z,0.40
2022-08-27T17:41:34.489Z,0.35
2022-08-27T17:44:16.044Z,0.35
2022-08-27T17:46:43.764Z,0.40
2022-08-27T17:49:11.415Z,0.43
2022-08-27T17:51:38.866Z,0.30
2022-08-27T17:54:11.021Z,0.68
2022-08-27T17:56:40.118Z,0.52
2022-08-27T17:59:07.883Z,0.65
2022-08-27T18:01:40.047Z,0.30
2022-08-27T18:04:08.439Z,0.70
2022-08-27T18:06:36.133Z,0.40
2022-08-27T18:09:04.721Z,0.60
2022-08-27T18:11:33.699Z,0.35
2022-08-27T18:14:04.911Z,0.55
2022-08-27T18:16:33.349Z,1.30
2022-08-27T18:19:01.705Z,0.70
2022-08-27T18:21:34.906Z,0.43
2022-08-27T18:24:02.561Z,0.50
2022-08-27T18:26:31.318Z,1.02
2022-08-27T18:28:59.386Z,0.60
2022-08-27T18:31:31.517Z,0.88
2022-08-27T18:34:00.600Z,1.20
2022-08-27T18:36:28.898Z,0.43
2022-08-27T18:38:56.981Z,1.87
2022-08-27T18:41:26.338Z,0.87
2022-08-27T18:43:53.894Z,0.88
2022-08-27T18:46:21.616Z,4.15
2022-08-27T18:48:49.409Z,2.17
2022-08-27T18:51:19.616Z,0.43
2022-08-27T18:53:48.143Z,0.93
2022-08-27T18:56:18.984Z,0.50
2022-08-27T18:58:47.551Z,0.73
2022-08-27T19:01:19.298Z,0.50
2022-08-27T19:03:50.376Z,0.40
2022-08-27T19:06:20.680Z,0.87
2022-08-27T19:08:50.028Z,0.77
2022-08-27T19:11:17.685Z,0.80
2022-08-27T19:13:45.195Z,0.73
2022-08-27T19:16:33.673Z,0.82
2022-08-27T19:19:01.196Z,0.63
2022-08-27T19:21:28.927Z,0.60
2022-08-27T19:23:56.479Z,0.93
2022-08-27T19:26:25.733Z,0.70
2022-08-27T19:28:53.508Z,0.80
2022-08-27T19:31:21.097Z,0.50
2022-08-27T19:33:49.060Z,0.57
2022-08-27T19:36:18.830Z,0.60
2022-08-27T19:38:49.391Z,0.60
2022-08-27T19:41:17.864Z,0.60
2022-08-27T19:43:45.972Z,0.63
2022-08-27T19:46:17.250Z,0.70
2022-08-27T19:48:45.193Z,0.70
2022-08-27T19:51:13.469Z,0.62
2022-08-27T19:53:41.500Z,0.47
2022-08-27T19:56:13.177Z,0.70
2022-08-27T19:58:42.040Z,0.43
2022-08-27T20:01:10.465Z,0.30
2022-08-27T20:03:38.536Z,1.65
2022-08-27T20:06:06.174Z,0.85
2022-08-27T20:08:34.153Z,0.87
2022-08-27T20:11:01.989Z,0.80
2022-08-27T20:13:33.055Z,0.68
2022-08-27T20:16:01.704Z,0.88
2022-08-27T20:18:29.607Z,1.05
2022-08-27T20:20:57.078Z,0.53
2022-08-27T20:23:25.206Z,0.95
2022-08-27T20:25:57.832Z,0.60
2022-08-27T20:28:39.386Z,0.50
2022-08-27T20:31:08.238Z,0.85
2022-08-27T20:33:35.727Z,0.50
2022-08-27T20:36:03.489Z,0.70
2022-08-27T20:38:31.305Z,0.80
2022-08-27T20:40:58.799Z,0.43
2022-08-27T20:43:28.664Z,0.75
2022-08-27T20:45:56.744Z,0.80
2022-08-27T20:48:24.337Z,0.70
2022-08-27T20:50:51.849Z,0.95
2022-08-27T20:53:19.675Z,0.70
2022-08-27T20:55:47.148Z,0.45
2022-08-27T20:58:33.250Z,0.67
2022-08-27T21:01:01.671Z,0.80
2022-08-27T21:03:29.291Z,0.57
2022-08-27T21:05:56.726Z,0.68
2022-08-27T21:08:24.507Z,1.12
2022-08-27T21:10:55.000Z,1.23
2022-08-27T21:13:23.472Z,0.43
2022-08-27T21:15:54.600Z,0.85
2022-08-27T21:18:29.740Z,0.62
2022-08-27T21:20:59.949Z,0.45
2022-08-27T21:23:29.045Z,0.60
2022-08-27T21:26:02.256Z,0.73
2022-08-27T21:28:30.326Z,1.58
2022-08-27T21:30:57.840Z,0.60
2022-08-27T21:33:25.440Z,0.65
2022-08-27T21:35:53.434Z,0.50
2022-08-27T21:38:21.056Z,0.75
2022-08-27T21:40:48.511Z,0.40
2022-08-27T21:43:16.316Z,0.50
2022-08-27T21:45:44.477Z,0.50
2022-08-27T21:48:12.281Z,0.73
2022-08-27T21:50:40.177Z,0.80
2022-08-27T21:53:07.720Z,0.60
2022-08-27T21:55:35.199Z,0.80
2022-08-27T21:58:03.409Z,0.75
2022-08-27T22:00:35.263Z,0.83
2022-08-27T22:03:03.858Z,0.57
2022-08-27T22:05:38.745Z,0.80
2022-08-27T22:08:06.870Z,0.80
2022-08-27T22:10:34.788Z,0.73
2022-08-27T22:13:02.240Z,0.30
2022-08-27T22:15:30.165Z,0.50
2022-08-27T22:17:58.103Z,0.50
2022-08-27T22:20:25.720Z,0.50
2022-08-27T22:22:53.986Z,0.50
2022-08-27T22:25:21.468Z,44.63
2022-08-27T22:27:49.145Z,10.63
2022-08-27T22:30:17.596Z,0.40
2022-08-27T22:32:45.116Z,0.73
2022-08-27T22:35:14.413Z,0.90
2022-08-27T22:37:44.056Z,23.00
2022-08-27T22:40:20.041Z,0.73
2022-08-27T22:42:49.608Z,0.20
2022-08-27T22:45:18.371Z,1.50
2022-08-27T22:47:46.361Z,5.20
2022-08-27T22:50:15.071Z,27.17
2022-08-27T22:52:42.914Z,26.65
2022-08-27T22:55:12.750Z,1.48
2022-08-27T22:57:40.989Z,0.20
2022-08-27T23:00:15.729Z,0.20
2022-08-27T23:02:43.590Z,0.20
2022-08-27T23:05:12.114Z,0.15
2022-08-27T23:07:40.131Z,0.20
2022-08-27T23:10:10.675Z,0.10
2022-08-27T23:12:38.966Z,0.20
2022-08-27T23:15:08.812Z,0.20
2022-08-27T23:17:37.473Z,0.17
2022-08-27T23:20:06.719Z,0.17
2022-08-27T23:22:35.772Z,0.13
2022-08-27T23:25:23.604Z,0.20
2022-08-27T23:27:51.026Z,0.10
2022-08-27T23:30:18.936Z,0.20
2022-08-27T23:32:50.312Z,0.20
2022-08-27T23:35:23.975Z,0.20
2022-08-27T23:37:51.928Z,0.20
2022-08-27T23:40:20.961Z,0.20
2022-08-27T23:42:49.694Z,0.10
2022-08-27T23:45:20.791Z,0.20
2022-08-27T23:47:48.884Z,0.20
2022-08-27T23:50:16.760Z,0.17
2022-08-27T23:52:44.241Z,0.20
2022-08-27T23:55:12.521Z,0.10
2022-08-27T23:57:40.851Z,0.10
